Aérodrome :
LOGIN :

S'inscrire | Disclaimer

   EN    FR    IT 

 










Légende :    VFR   VFR Marginal   IFR   IFR Intensif   IFR Très Intensif
Visi : 
Plafond : 
>= 8 km
>= 3000ft
5 à 8 km
1000 à 3000 ft
1500m à 5 km
500 à 1000 ft
800 à 1500m
200 à 500 ft
< 800m
< 200 ft
Symboles :   Orages  Brouillard  Fortes neiges  Fortes précipitations  Vent > 20 kt
SIGMETs :   Divers  Orages  Givrage  Turbulence  Onde Orograph.  Cendres Volcan.







- Altitude de l'aérodrome : 1367 ft
- Code IATA : FDH


EDNY - Friedrichshafen

DERNIER METAR :
  • 141750Z 15003KT 3000 BR SCT001 OVC003 07/06 Q1028

METARs EXPIRÉS :
  • 141720Z VRB02KT 6000 OVC005 07/06 Q1028
  • 141650Z VRB01KT 7000 OVC006 07/06 Q1028
  • 141620Z 00000KT 7000 OVC006 07/06 Q1028
  • 141550Z VRB02KT 9000 SCT004 OVC007 07/06 Q1028
  • 141520Z VRB02KT 8000 SCT004 OVC006 07/07 Q1028
  • 141450Z VRB01KT 9999 OVC004 07/07 Q1028

TAF TAF EDNY
Valide du 14 à 18h jusqu'au 15 à 18h UTC


141700Z 1418/1518 03004KT 7000 OVC006
BECMG 1419/1422 3000 BR OVC003
TEMPO 1422/1508 1200 BR
BECMG 1509/1511 7000
BECMG 1511/1513 BKN007
TEMPO 1514/1518 BKN010
Pas de NOTAMs connus pour ce terrain.



MET'MAP, la Météo Aéronautique d'un coup d'oeil ! - Copyright ORBIFLY Décembre 2007 - Disclaimer

ORBIFLY MET'MAP TEAM :

Programmation & Développement : Alexandra Zaïnal
Conception & Développement : Baudouin d'Aumeries
Co-Programmation & Développement : Marc-Olivier Méhu
Soutien technique & logistique : Manuel Goepfert

Contact : metmap@orbifly.com




SOURCES & CREDITS :

   NOAA